Time;durP1;ratioP1;P1;durP2;ratioP2;P2;SDS_P1;SDS_P2;PMS_P1;PMS_P2;Temp;Humidity;BMP_temperature;BMP_pressure;BME280_temperature;BME280_humidity;BME280_pressure;Samples;Min_cycle;Max_cycle;Signal;HPM_P1;HPM_P2
2022/07/02 00:00:58;;;;;;;31.23;8.80;;;27.20;56.90;;;;;;4981597;28;20419;-56
2022/07/02 00:03:33;;;;;;;14.23;8.70;;;27.20;57.30;;;;;;4994506;28;20061;-58
2022/07/02 00:06:00;;;;;;;23.23;10.52;;;27.10;57.50;;;;;;4994690;28;20110;-56
2022/07/02 00:08:28;;;;;;;27.13;8.75;;;27.10;57.70;;;;;;4994183;28;20030;-54
2022/07/02 00:10:55;;;;;;;11.65;7.45;;;27.10;57.70;;;;;;4994054;28;20026;-60
2022/07/02 00:13:23;;;;;;;11.05;8.55;;;27.10;57.60;;;;;;4992759;28;20030;-57
2022/07/02 00:15:49;;;;;;;15.73;8.48;;;27.10;57.60;;;;;;4993098;28;20030;-59
2022/07/02 00:18:15;;;;;;;17.33;9.80;;;27.10;57.60;;;;;;4994136;28;20571;-59
2022/07/02 00:20:42;;;;;;;12.60;8.57;;;27.00;57.20;;;;;;4994139;28;20022;-55
2022/07/02 00:23:09;;;;;;;18.13;10.13;;;27.00;57.80;;;;;;4994238;28;20042;-57
2022/07/02 00:25:43;;;;;;;24.35;8.95;;;26.90;57.70;;;;;;4994319;28;20026;-57
2022/07/02 00:28:12;;;;;;;10.77;9.20;;;26.90;58.20;;;;;;4993587;28;20034;-56
2022/07/02 00:30:39;;;;;;;14.80;9.00;;;26.90;57.60;;;;;;4989468;28;20053;-59
2022/07/02 00:33:06;;;;;;;12.75;9.45;;;26.80;57.30;;;;;;4992500;28;20038;-57
2022/07/02 00:35:33;;;;;;;12.52;9.88;;;26.70;57.10;;;;;;4994122;28;20026;-58
2022/07/02 00:38:01;;;;;;;14.15;8.52;;;26.70;56.90;;;;;;4994042;28;20037;-56
2022/07/02 00:40:28;;;;;;;11.45;8.07;;;26.50;56.60;;;;;;4993966;28;20027;-58
2022/07/02 00:42:54;;;;;;;10.02;7.97;;;26.40;56.60;;;;;;4993634;28;20034;-58
2022/07/02 00:45:20;;;;;;;12.87;8.30;;;26.30;56.70;;;;;;4993590;28;20235;-61
2022/07/02 00:47:47;;;;;;;13.57;9.23;;;26.30;56.60;;;;;;4993570;28;20037;-60
2022/07/02 00:50:13;;;;;;;14.10;8.98;;;26.30;56.70;;;;;;4993832;28;20407;-59
2022/07/02 00:52:39;;;;;;;14.47;9.50;;;26.30;56.50;;;;;;4993873;28;20116;-58
2022/07/02 00:55:05;;;;;;;15.27;9.37;;;26.20;56.40;;;;;;4993581;28;20034;-57
2022/07/02 00:57:33;;;;;;;15.02;10.05;;;26.10;56.60;;;;;;4993329;28;20403;-57
2022/07/02 00:59:59;;;;;;;13.27;9.48;;;26.10;56.70;;;;;;4992949;28;20361;-59
2022/07/02 01:02:26;;;;;;;11.60;10.48;;;26.10;56.80;;;;;;4993050;28;20372;-56
2022/07/02 01:04:55;;;;;;;11.63;9.82;;;26.00;57.40;;;;;;4993152;28;20032;-57
2022/07/02 01:07:21;;;;;;;10.90;9.73;;;26.00;57.00;;;;;;4993487;28;20059;-60
2022/07/02 01:12:35;;;;;;;12.05;9.38;;;26.00;57.20;;;;;;5012672;28;20156;-54
2022/07/02 01:15:01;;;;;;;17.40;10.02;;;26.00;57.20;;;;;;4997306;28;20034;-55
2022/07/02 01:17:27;;;;;;;16.27;11.13;;;26.00;57.10;;;;;;4993354;28;20027;-58
2022/07/02 01:19:54;;;;;;;15.30;10.23;;;26.10;57.30;;;;;;4993243;28;20023;-57
2022/07/02 01:22:20;;;;;;;;;;;26.10;57.40;;;;;;4993291;28;20018;-57
2022/07/02 01:24:52;;;;;;;16.52;11.70;;;26.00;57.70;;;;;;4992998;28;20252;-58
2022/07/02 01:27:20;;;;;;;16.98;11.23;;;25.90;57.80;;;;;;4993293;28;20066;-56
2022/07/02 01:29:45;;;;;;;13.95;12.13;;;25.90;57.90;;;;;;4992524;28;20435;-57
2022/07/02 01:32:12;;;;;;;17.07;12.43;;;25.90;58.10;;;;;;4993130;28;20030;-59
2022/07/02 01:34:43;;;;;;;16.30;12.30;;;25.90;58.40;;;;;;4992684;28;20032;-57
2022/07/02 01:37:12;;;;;;;19.60;13.20;;;25.90;58.50;;;;;;4992985;28;20037;-54
2022/07/02 01:39:39;;;;;;;20.58;12.65;;;26.00;58.80;;;;;;4992555;28;20070;-53
2022/07/02 01:42:06;;;;;;;14.05;11.23;;;25.90;58.70;;;;;;4992598;28;20369;-60
2022/07/02 01:44:33;;;;;;;16.65;12.07;;;26.00;58.90;;;;;;4992278;28;20030;-59
2022/07/02 01:46:59;;;;;;;;;;;26.00;59.10;;;;;;4993327;28;20022;-58
2022/07/02 01:49:25;;;;;;;14.98;13.30;;;25.90;59.10;;;;;;4992525;28;20422;-55
2022/07/02 01:51:50;;;;;;;19.97;13.80;;;25.80;59.00;;;;;;4992256;28;20113;-59
2022/07/02 01:54:16;;;;;;;14.40;13.00;;;25.80;59.10;;;;;;4992642;28;20395;-59
2022/07/02 01:56:42;;;;;;;13.93;12.37;;;25.80;59.30;;;;;;4992222;28;20084;-58
2022/07/02 01:59:08;;;;;;;17.40;13.63;;;25.70;60.00;;;;;;4992144;28;20058;-58
2022/07/02 02:01:33;;;;;;;15.33;12.93;;;25.70;59.60;;;;;;4992698;28;20057;-58
2022/07/02 02:03:59;;;;;;;23.47;12.83;;;25.70;59.50;;;;;;4992307;28;20510;-57
2022/07/02 02:06:27;;;;;;;15.10;10.87;;;25.80;59.50;;;;;;4991952;28;20412;-57
2022/07/02 02:08:53;;;;;;;15.30;10.30;;;25.80;59.10;;;;;;4990885;28;20030;-57
2022/07/02 02:11:19;;;;;;;10.05;9.05;;;25.80;58.60;;;;;;4991509;28;20041;-59
2022/07/02 02:13:45;;;;;;;29.87;8.83;;;25.80;58.10;;;;;;4992039;28;20031;-58
2022/07/02 02:16:10;;;;;;;46.50;8.77;;;25.80;57.20;;;;;;4992059;28;20430;-59
2022/07/02 02:18:36;;;;;;;12.33;7.00;;;25.90;57.00;;;;;;4991825;28;20037;-58
2022/07/02 02:21:02;;;;;;;12.93;7.40;;;25.90;56.90;;;;;;4974710;28;20065;-57
2022/07/02 02:23:28;;;;;;;9.50;8.23;;;25.90;56.70;;;;;;4992183;28;20037;-60
2022/07/02 02:25:53;;;;;;;12.30;6.30;;;25.90;57.00;;;;;;4991510;28;20030;-58
2022/07/02 02:28:20;;;;;;;9.63;6.20;;;25.90;56.90;;;;;;4991940;28;20384;-59
2022/07/02 02:30:45;;;;;;;12.00;8.18;;;25.90;56.80;;;;;;4991947;28;20054;-58
2022/07/02 02:33:11;;;;;;;10.03;8.20;;;25.90;56.90;;;;;;4992032;28;20072;-58
2022/07/02 02:35:37;;;;;;;8.30;6.40;;;25.80;56.80;;;;;;4991568;28;20054;-56
2022/07/02 02:38:02;;;;;;;8.47;6.73;;;25.80;57.20;;;;;;4991613;28;20034;-56
2022/07/02 02:40:28;;;;;;;8.70;6.20;;;25.80;57.30;;;;;;4991797;28;20031;-56
2022/07/02 02:42:54;;;;;;;12.07;8.10;;;25.70;57.40;;;;;;5021149;22;20119;-49
2022/07/02 02:45:19;;;;;;;8.60;7.77;;;25.70;57.30;;;;;;5011261;28;20478;-49
2022/07/02 02:47:45;;;;;;;11.77;7.90;;;25.60;57.30;;;;;;5011368;28;20053;-50
2022/07/02 02:50:11;;;;;;;9.67;8.50;;;25.60;57.60;;;;;;5010872;28;20117;-49
2022/07/02 02:52:36;;;;;;;12.70;8.53;;;25.60;57.50;;;;;;5026558;28;20041;-51
2022/07/02 02:55:02;;;;;;;10.50;8.33;;;25.60;57.40;;;;;;4999355;28;20034;-49
2022/07/02 02:57:28;;;;;;;9.77;8.60;;;25.60;57.30;;;;;;5011648;28;20430;-49
2022/07/02 02:59:54;;;;;;;10.70;8.73;;;25.60;57.20;;;;;;5007758;28;20309;-49
2022/07/02 03:02:20;;;;;;;13.60;9.33;;;25.60;57.30;;;;;;4991970;28;20026;-48
2022/07/02 03:04:45;;;;;;;10.73;9.63;;;25.60;57.30;;;;;;4991668;28;20104;-49
2022/07/02 03:07:11;;;;;;;12.33;9.43;;;25.50;57.00;;;;;;4992146;28;20034;-49
2022/07/02 03:09:37;;;;;;;13.77;9.30;;;25.40;57.30;;;;;;4992301;28;20482;-51
2022/07/02 03:12:03;;;;;;;20.30;10.63;;;25.40;57.60;;;;;;4992144;28;20041;-51
2022/07/02 03:14:28;;;;;;;12.10;9.43;;;25.30;57.80;;;;;;5008025;28;20037;-49
2022/07/02 03:16:54;;;;;;;10.13;8.10;;;25.30;58.00;;;;;;5011636;28;20037;-49
2022/07/02 03:19:20;;;;;;;10.87;8.20;;;25.30;57.80;;;;;;5008547;28;20033;-50
2022/07/02 03:21:45;;;;;;;9.57;8.57;;;25.30;57.90;;;;;;5007957;28;20113;-51
2022/07/02 03:24:11;;;;;;;17.67;9.27;;;25.20;57.60;;;;;;5010535;28;20430;-50
2022/07/02 03:26:37;;;;;;;13.67;9.90;;;25.20;57.70;;;;;;4996583;28;20073;-49
2022/07/02 03:29:03;;;;;;;13.33;9.87;;;25.10;57.60;;;;;;4994884;28;20034;-52
2022/07/02 03:31:28;;;;;;;14.33;9.60;;;25.00;57.60;;;;;;4990677;28;20372;-50
2022/07/02 03:33:54;;;;;;;12.23;10.93;;;24.90;58.00;;;;;;5002996;28;20030;-51
2022/07/02 03:36:20;;;;;;;11.53;9.57;;;25.00;58.20;;;;;;5011418;28;20414;-51
2022/07/02 03:38:45;;;;;;;15.47;10.23;;;25.00;58.20;;;;;;5005319;28;20026;-52
2022/07/02 03:41:11;;;;;;;12.67;9.60;;;24.90;58.20;;;;;;5010827;28;20065;-51
2022/07/02 03:43:37;;;;;;;17.50;8.97;;;24.90;58.20;;;;;;5004053;28;20486;-51
2022/07/02 03:46:03;;;;;;;10.57;9.43;;;24.90;58.20;;;;;;5014870;28;20118;-53
2022/07/02 03:48:29;;;;;;;13.50;9.67;;;24.80;58.50;;;;;;5003579;28;20032;-53
2022/07/02 03:50:54;;;;;;;14.00;5.50;;;24.80;58.80;;;;;;4995132;28;20088;-47
2022/07/02 03:53:20;;;;;;;10.77;6.93;;;24.80;57.70;;;;;;5000181;28;20041;-52
2022/07/02 03:55:46;;;;;;;12.73;7.43;;;24.80;57.90;;;;;;4998335;28;20034;-50
2022/07/02 03:58:12;;;;;;;10.17;6.17;;;24.90;57.70;;;;;;4997115;28;20026;-50
2022/07/02 04:00:37;;;;;;;8.87;6.40;;;24.90;57.40;;;;;;4997275;28;20029;-49
2022/07/02 04:03:03;;;;;;;10.10;6.40;;;24.90;56.90;;;;;;4993725;28;20077;-50
2022/07/02 04:05:29;;;;;;;13.37;7.53;;;24.90;57.30;;;;;;4993125;28;20038;-51
2022/07/02 04:07:55;;;;;;;7.93;5.30;;;25.00;57.30;;;;;;4994266;28;20525;-50
2022/07/02 04:10:21;;;;;;;12.20;6.10;;;25.00;57.00;;;;;;4994602;28;20068;-50
2022/07/02 04:12:47;;;;;;;8.63;6.70;;;25.10;57.00;;;;;;4994202;28;20030;-51
2022/07/02 04:15:13;;;;;;;11.40;6.50;;;25.20;57.00;;;;;;4994387;28;20034;-50
2022/07/02 04:17:39;;;;;;;10.87;6.40;;;25.30;57.20;;;;;;4994299;28;20463;-49
2022/07/02 04:20:05;;;;;;;10.70;6.50;;;25.30;57.30;;;;;;4994732;28;20023;-50
2022/07/02 04:22:30;;;;;;;6.97;6.20;;;25.30;57.10;;;;;;4993406;28;20029;-50
2022/07/02 04:24:56;;;;;;;11.37;6.03;;;25.30;56.90;;;;;;4994644;28;20257;-50
2022/07/02 04:27:22;;;;;;;10.40;6.50;;;25.40;56.90;;;;;;4994625;28;20030;-50
2022/07/02 04:29:48;;;;;;;12.63;6.00;;;25.40;56.70;;;;;;4994719;28;20141;-50
2022/07/02 04:32:14;;;;;;;7.57;6.00;;;25.40;57.00;;;;;;4994455;28;20030;-50
2022/07/02 04:34:40;;;;;;;11.87;6.80;;;25.40;57.00;;;;;;4994501;28;20397;-50
2022/07/02 04:37:06;;;;;;;7.50;6.10;;;25.40;57.30;;;;;;4994408;28;20737;-50
2022/07/02 04:39:31;;;;;;;9.37;6.07;;;25.40;57.90;;;;;;4994639;28;20030;-51
2022/07/02 04:41:58;;;;;;;6.70;3.47;;;25.40;57.90;;;;;;4994443;28;20024;-50
2022/07/02 04:44:24;;;;;;;3.75;3.00;;;25.40;56.20;;;;;;4994366;28;20038;-50
2022/07/02 04:46:51;;;;;;;7.75;3.90;;;25.50;55.30;;;;;;4992988;28;20026;-50
2022/07/02 04:49:16;;;;;;;6.50;4.20;;;25.60;55.10;;;;;;4994111;28;20026;-52
2022/07/02 04:51:42;;;;;;;7.80;4.90;;;25.60;55.20;;;;;;4994291;28;20442;-50
2022/07/02 04:54:08;;;;;;;7.50;4.73;;;25.80;55.70;;;;;;4994183;28;20081;-50
2022/07/02 04:56:34;;;;;;;7.50;5.47;;;25.80;55.80;;;;;;4994217;28;20038;-49
2022/07/02 04:58:59;;;;;;;8.40;5.13;;;25.80;55.80;;;;;;4992741;28;20037;-52
2022/07/02 05:01:25;;;;;;;9.07;4.93;;;25.80;55.70;;;;;;4994146;28;20030;-51
2022/07/02 05:03:52;;;;;;;10.93;5.50;;;25.90;55.60;;;;;;4993873;28;20255;-50
2022/07/02 05:06:21;;;;;;;9.48;6.10;;;25.90;56.10;;;;;;4994151;28;20529;-50
2022/07/02 05:08:48;;;;;;;10.82;5.28;;;25.90;56.20;;;;;;4993643;28;20495;-51
2022/07/02 05:11:16;;;;;;;10.38;6.43;;;26.00;56.30;;;;;;4992611;28;20079;-52
2022/07/02 05:13:47;;;;;;;16.95;6.63;;;26.10;56.30;;;;;;4993599;28;20038;-51
2022/07/02 05:16:13;;;;;;;12.13;6.88;;;26.00;56.30;;;;;;4993835;28;20046;-51
2022/07/02 05:18:39;;;;;;;18.90;7.27;;;26.10;56.50;;;;;;4993703;28;20027;-50
2022/07/02 05:21:07;;;;;;;11.93;7.13;;;26.10;57.30;;;;;;4993734;28;20433;-50
2022/07/02 05:23:33;;;;;;;14.43;7.20;;;26.20;56.60;;;;;;4993637;28;20157;-51
2022/07/02 05:25:59;;;;;;;9.13;6.47;;;26.20;57.00;;;;;;4993855;28;20479;-51
2022/07/02 05:28:25;;;;;;;8.77;6.47;;;26.20;56.20;;;;;;4993414;28;20038;-50
2022/07/02 05:30:51;;;;;;;8.33;6.23;;;26.30;56.30;;;;;;4992155;28;20049;-51
2022/07/02 05:33:17;;;;;;;17.25;6.00;;;26.30;55.80;;;;;;4993390;28;20034;-50
2022/07/02 05:35:43;;;;;;;8.73;5.43;;;26.30;56.70;;;;;;4993456;28;20385;-50
2022/07/02 05:38:09;;;;;;;6.77;4.33;;;26.40;56.90;;;;;;4993385;28;20655;-50
2022/07/02 05:40:35;;;;;;;8.47;3.30;;;26.40;56.20;;;;;;4993923;28;20031;-51
2022/07/02 05:43:01;;;;;;;6.43;3.40;;;26.40;54.20;;;;;;4993058;28;20030;-51
2022/07/02 05:45:27;;;;;;;10.40;3.42;;;26.50;54.10;;;;;;4993007;28;20084;-50
2022/07/02 05:47:53;;;;;;;6.28;2.78;;;26.60;53.60;;;;;;4993072;28;20030;-51
2022/07/02 05:50:19;;;;;;;7.77;3.10;;;26.60;51.80;;;;;;4992330;28;20022;-50
2022/07/02 05:52:45;;;;;;;12.50;3.20;;;26.60;52.00;;;;;;4993432;28;20029;-52
2022/07/02 05:55:11;;;;;;;7.28;3.15;;;26.70;52.00;;;;;;4993331;28;20629;-50
2022/07/02 05:57:37;;;;;;;11.63;3.65;;;26.70;51.40;;;;;;4992852;28;20415;-53
2022/07/02 06:00:04;;;;;;;7.53;2.78;;;26.70;51.90;;;;;;4992498;28;20034;-51
2022/07/02 06:02:30;;;;;;;7.90;3.50;;;26.80;51.60;;;;;;4992919;28;20022;-50
2022/07/02 06:04:56;;;;;;;7.87;3.20;;;26.80;52.90;;;;;;4992869;28;20030;-52
2022/07/02 06:07:40;;;;;;;5.23;2.93;;;26.90;52.60;;;;;;4992850;28;20510;-50
2022/07/02 06:10:07;;;;;;;7.57;2.88;;;26.90;52.00;;;;;;4992728;28;20495;-50
2022/07/02 06:12:33;;;;;;;7.60;3.10;;;26.90;52.50;;;;;;4992457;28;20030;-50
2022/07/02 06:14:58;;;;;;;10.20;3.23;;;27.00;52.70;;;;;;4992855;28;20024;-50
2022/07/02 06:17:24;;;;;;;9.53;3.43;;;27.10;51.90;;;;;;4992580;28;20022;-49
2022/07/02 06:19:51;;;;;;;10.07;3.37;;;27.10;51.90;;;;;;4992826;28;20029;-51
2022/07/02 06:22:17;;;;;;;7.22;3.35;;;27.20;52.00;;;;;;4992673;28;20257;-51
2022/07/02 06:24:45;;;;;;;5.70;3.92;;;27.20;50.70;;;;;;4991188;28;20058;-50
2022/07/02 06:27:11;;;;;;;8.10;3.05;;;27.20;50.70;;;;;;4992445;28;20030;-50
2022/07/02 06:29:37;;;;;;;10.13;3.83;;;27.20;50.60;;;;;;4992885;28;20031;-50
2022/07/02 06:32:04;;;;;;;9.57;3.90;;;27.20;51.00;;;;;;4992687;28;20030;-50
2022/07/02 06:34:29;;;;;;;8.98;3.47;;;27.40;51.20;;;;;;4992316;28;20033;-50
2022/07/02 06:36:55;;;;;;;5.77;3.70;;;27.40;51.30;;;;;;4992703;28;20038;-52
2022/07/02 06:39:20;;;;;;;8.27;4.20;;;27.50;50.60;;;;;;4992220;28;20117;-50
2022/07/02 06:44:30;;;;;;;12.68;3.85;;;27.30;50.50;;;;;;4992302;28;20069;-50
2022/07/02 06:46:56;;;;;;;12.03;4.50;;;27.30;51.20;;;;;;4992549;28;20026;-52
2022/07/02 06:49:21;;;;;;;6.77;3.63;;;27.40;51.70;;;;;;4992434;28;20101;-50
2022/07/02 06:51:47;;;;;;;6.27;3.67;;;27.50;51.50;;;;;;4992363;28;20038;-49
2022/07/02 06:54:13;;;;;;;21.27;4.20;;;27.60;51.20;;;;;;4992463;28;20062;-50
2022/07/02 06:56:39;;;;;;;5.50;3.50;;;27.60;51.30;;;;;;4992484;28;20034;-50
2022/07/02 06:59:06;;;;;;;19.20;4.57;;;27.60;51.50;;;;;;4992042;28;20027;-50
2022/07/02 07:01:32;;;;;;;;;;;27.70;50.60;;;;;;4992820;28;20041;-50
2022/07/02 07:03:57;;;;;;;13.85;4.22;;;27.70;50.30;;;;;;4992341;28;19906;-50
2022/07/02 07:06:26;;;;;;;7.23;3.60;;;27.60;50.70;;;;;;4992320;28;20113;-51
2022/07/02 07:08:53;;;;;;;7.55;3.97;;;27.70;50.40;;;;;;4991981;28;20108;-50
2022/07/02 07:11:20;;;;;;;9.27;3.85;;;27.70;50.10;;;;;;4993386;28;20023;-50
2022/07/02 07:13:46;;;;;;;6.45;3.63;;;27.70;50.10;;;;;;4994304;28;20517;-50
2022/07/02 07:16:12;;;;;;;7.22;3.65;;;27.70;50.10;;;;;;4995899;28;20026;-51
2022/07/02 07:18:38;;;;;;;10.07;3.85;;;27.70;48.90;;;;;;4995723;28;20106;-52
2022/07/02 07:21:04;;;;;;;7.93;3.70;;;27.70;48.40;;;;;;4995787;28;20181;-50
2022/07/02 07:23:31;;;;;;;7.30;3.50;;;27.80;48.90;;;;;;4995947;28;20030;-49
2022/07/02 07:25:56;;;;;;;;;;;27.80;48.70;;;;;;4996313;28;20030;-49
2022/07/02 07:28:26;;;;;;;8.40;3.13;;;27.80;49.10;;;;;;4995635;28;19912;-50
2022/07/02 07:30:53;;;;;;;8.15;3.05;;;27.90;49.40;;;;;;4995852;28;20157;-51
2022/07/02 07:33:19;;;;;;;;;;;28.00;48.60;;;;;;4995900;28;20029;-50
2022/07/02 07:35:45;;;;;;;11.82;3.80;;;;;;;;;;4995522;28;19905;-50
2022/07/02 07:38:11;;;;;;;11.45;3.47;;;;;;;;;;4995709;28;20031;-51
2022/07/02 07:40:37;;;;;;;5.75;2.97;;;28.00;48.50;;;;;;4995513;28;20101;-51
2022/07/02 07:43:03;;;;;;;8.33;3.17;;;28.20;50.20;;;;;;4995259;28;20436;-50
2022/07/02 07:45:29;;;;;;;6.67;3.40;;;28.30;49.10;;;;;;4995357;28;20045;-50
2022/07/02 07:47:55;;;;;;;;;;;28.30;49.00;;;;;;4995760;28;20053;-50
2022/07/02 07:50:21;;;;;;;5.80;2.67;;;28.30;48.90;;;;;;4995127;28;20165;-50
2022/07/02 07:52:47;;;;;;;9.00;3.00;;;28.30;47.60;;;;;;4994155;28;20026;-50
2022/07/02 07:55:12;;;;;;;5.45;3.20;;;28.30;47.80;;;;;;4995026;28;20022;-49
2022/07/02 07:57:38;;;;;;;6.20;3.03;;;28.40;48.60;;;;;;4994735;28;20027;-51
2022/07/02 08:00:05;;;;;;;9.07;3.47;;;28.50;48.00;;;;;;4993798;28;20030;-50
2022/07/02 08:02:31;;;;;;;8.60;3.30;;;28.60;47.80;;;;;;4995057;28;20026;-50
2022/07/02 08:04:57;;;;;;;8.07;3.20;;;28.60;47.60;;;;;;4993674;28;20015;-50
2022/07/02 08:07:22;;;;;;;7.97;3.00;;;28.60;47.60;;;;;;4994881;28;20137;-50
2022/07/02 08:09:52;;;;;;;6.87;3.63;;;28.60;47.90;;;;;;4999776;28;20022;-50
2022/07/02 08:12:22;;;;;;;5.85;2.58;;;28.60;47.50;;;;;;5001652;28;20026;-52
2022/07/02 08:14:48;;;;;;;5.22;2.83;;;28.70;48.00;;;;;;5003727;28;20033;-50
2022/07/02 08:17:15;;;;;;;7.70;2.97;;;28.80;48.30;;;;;;5010949;28;20042;-50
2022/07/02 08:19:40;;;;;;;5.90;3.10;;;28.90;47.80;;;;;;5013794;28;20113;-50
2022/07/02 08:22:06;;;;;;;9.30;3.13;;;29.00;47.50;;;;;;5013947;28;20114;-52
2022/07/02 08:24:32;;;;;;;7.93;2.90;;;29.00;48.00;;;;;;5014218;28;20025;-50
2022/07/02 08:26:58;;;;;;;11.83;3.87;;;29.00;48.60;;;;;;5014025;28;20518;-50
2022/07/02 08:29:24;;;;;;;9.27;2.60;;;29.10;48.40;;;;;;5012999;28;20030;-50
2022/07/02 08:31:49;;;;;;;6.68;3.47;;;29.20;47.60;;;;;;5013705;28;20030;-52
2022/07/02 08:34:15;;;;;;;4.60;2.80;;;29.30;47.90;;;;;;5013721;28;20052;-50
2022/07/02 08:36:41;;;;;;;10.03;4.03;;;29.40;47.90;;;;;;5013918;28;20076;-50
2022/07/02 08:39:07;;;;;;;4.90;3.07;;;29.30;47.20;;;;;;5013737;28;20287;-50
2022/07/02 08:41:32;;;;;;;8.03;3.17;;;29.40;47.80;;;;;;5013804;28;20406;-51
2022/07/02 08:44:01;;;;;;;7.50;3.55;;;29.30;47.40;;;;;;5036870;22;20347;-57
2022/07/02 08:46:28;;;;;;;7.63;3.13;;;29.30;47.80;;;;;;5012133;28;20026;-58
2022/07/02 08:48:55;;;;;;;6.60;3.50;;;29.40;47.60;;;;;;5013487;28;20021;-56
2022/07/02 08:51:20;;;;;;;;;;;29.40;47.40;;;;;;5014200;28;20061;-58
2022/07/02 08:53:47;;;;;;;9.40;4.40;;;;;;;;;;5012309;28;19990;-58
2022/07/02 08:56:13;;;;;;;11.95;3.13;;;;;;;;;;5013622;28;20033;-57
2022/07/02 08:58:39;;;;;;;6.57;3.25;;;;;;;;;;5013226;28;20489;-58
2022/07/02 09:01:07;;;;;;;7.07;2.70;;;;;;;;;;5013418;28;20048;-58
2022/07/02 09:03:33;;;;;;;10.95;2.80;;;;;;;;;;5013335;28;20038;-58
2022/07/02 09:05:59;;;;;;;13.45;4.28;;;;;;;;;;5013326;28;20105;-58
2022/07/02 09:08:26;;;;;;;6.32;2.95;;;;;;;;;;5013221;28;20613;-58
2022/07/02 09:10:52;;;;;;;10.50;3.40;;;29.40;47.60;;;;;;5013179;28;20017;-58
2022/07/02 09:13:19;;;;;;;7.07;3.65;;;30.10;47.60;;;;;;5013129;28;20030;-58
2022/07/02 09:15:45;;;;;;;6.38;4.10;;;30.20;46.80;;;;;;5013045;28;20032;-58
2022/07/02 09:18:11;;;;;;;7.15;2.85;;;30.10;46.90;;;;;;5011708;28;20030;-56
2022/07/02 09:20:37;;;;;;;10.50;3.45;;;30.00;47.40;;;;;;5013205;28;20018;-58
2022/07/02 09:23:20;;;;;;;7.32;3.28;;;30.10;47.10;;;;;;5012954;28;20409;-58
2022/07/02 09:25:46;;;;;;;10.77;3.78;;;30.10;47.30;;;;;;5012965;28;20057;-58
2022/07/02 09:28:14;;;;;;;8.68;3.47;;;30.20;47.90;;;;;;5012597;28;20065;-58
2022/07/02 09:30:40;;;;;;;11.98;4.13;;;30.20;47.40;;;;;;5013079;28;20026;-58
2022/07/02 09:33:31;;;;;;;11.43;3.00;;;30.20;47.30;;;;;;5012692;28;20037;-58
2022/07/02 09:35:59;;;;;;;11.40;3.60;;;30.30;48.30;;;;;;5011519;28;20498;-58
2022/07/02 09:38:25;;;;;;;4.95;2.90;;;;;;;;;;5012611;28;20029;-56
2022/07/02 09:40:55;;;;;;;9.75;3.15;;;30.30;48.00;;;;;;5012344;28;20518;-57
2022/07/02 09:43:32;;;;;;;8.35;2.80;;;30.50;47.30;;;;;;5012572;28;20406;-56
2022/07/02 09:45:59;;;;;;;6.25;2.70;;;30.60;47.70;;;;;;5011229;28;20557;-57
2022/07/02 09:48:25;;;;;;;12.52;2.53;;;30.60;47.60;;;;;;5012978;28;20026;-58
2022/07/02 09:50:52;;;;;;;4.68;2.70;;;30.70;47.00;;;;;;5012883;28;20037;-55
2022/07/02 09:53:18;;;;;;;9.13;2.85;;;30.90;45.90;;;;;;5012435;28;20498;-58
2022/07/02 09:55:51;;;;;;;8.70;3.20;;;30.90;45.40;;;;;;5012533;28;20033;-56
2022/07/02 09:58:27;;;;;;;8.38;2.70;;;30.80;46.20;;;;;;5012376;28;20029;-58
2022/07/02 10:00:53;;;;;;;6.50;2.63;;;30.90;46.80;;;;;;5011096;28;20030;-57
2022/07/02 10:03:20;;;;;;;6.43;2.10;;;31.00;46.30;;;;;;5012324;28;20072;-58
2022/07/02 10:05:50;;;;;;;4.63;2.15;;;31.10;46.10;;;;;;5012777;28;20022;-58
2022/07/02 10:08:17;;;;;;;11.75;2.53;;;31.20;44.80;;;;;;5012263;28;20387;-58
2022/07/02 10:10:43;;;;;;;13.32;2.63;;;31.30;45.30;;;;;;5012324;28;20041;-58
2022/07/02 10:13:12;;;;;;;5.75;2.53;;;31.40;44.30;;;;;;5012279;28;20026;-58
2022/07/02 10:16:06;;;;;;;10.95;3.17;;;31.40;44.90;;;;;;5012231;28;20041;-58
2022/07/02 10:18:34;;;;;;;6.50;2.80;;;31.60;44.00;;;;;;5011155;28;20068;-58
2022/07/02 10:21:00;;;;;;;4.75;1.70;;;31.60;44.50;;;;;;5011012;28;20498;-57
2022/07/02 10:23:26;;;;;;;3.70;2.25;;;31.70;44.10;;;;;;5012243;28;20022;-58
2022/07/02 10:25:54;;;;;;;6.95;2.22;;;31.80;43.90;;;;;;5012097;28;20110;-58
2022/07/02 10:28:19;;;;;;;5.43;2.13;;;31.80;44.10;;;;;;5012000;28;20108;-58
2022/07/02 10:30:45;;;;;;;5.73;2.10;;;31.80;44.00;;;;;;5012051;28;20477;-57
2022/07/02 10:33:11;;;;;;;4.10;2.00;;;31.80;44.00;;;;;;5012011;28;20080;-58
2022/07/02 10:35:38;;;;;;;4.50;1.90;;;31.90;43.20;;;;;;5012090;28;20058;-58
2022/07/02 10:38:05;;;;;;;3.80;1.73;;;31.90;43.50;;;;;;5011911;28;20497;-58
2022/07/02 10:40:31;;;;;;;6.45;2.00;;;31.90;42.70;;;;;;5011960;28;20092;-58
2022/07/02 10:42:59;;;;;;;8.47;2.40;;;32.00;43.00;;;;;;5011696;28;20474;-58
2022/07/02 10:45:26;;;;;;;4.10;2.00;;;32.10;42.90;;;;;;5012945;28;20260;-58
2022/07/02 10:47:56;;;;;;;17.98;2.70;;;32.20;42.50;;;;;;5015787;28;20014;-56
2022/07/02 10:50:40;;;;;;;10.18;2.20;;;32.40;43.10;;;;;;5014453;28;20038;-58
2022/07/02 10:53:22;;;;;;;3.20;1.88;;;32.40;42.60;;;;;;5015243;28;20034;-57
2022/07/02 10:55:51;;;;;;;10.32;2.65;;;32.60;42.70;;;;;;5015154;28;20034;-57
2022/07/02 10:58:21;;;;;;;13.38;2.25;;;32.60;41.90;;;;;;5013309;28;20037;-58
2022/07/02 11:00:47;;;;;;;12.98;2.13;;;32.70;40.70;;;;;;5010269;28;20109;-58
2022/07/02 11:03:15;;;;;;;7.22;2.10;;;32.70;41.90;;;;;;5015806;28;20084;-58
2022/07/02 11:06:01;;;;;;;8.80;2.58;;;32.80;41.90;;;;;;5014190;28;20018;-58
2022/07/02 11:08:44;;;;;;;9.93;2.55;;;32.80;42.90;;;;;;5015464;28;20046;-58
2022/07/02 11:11:14;;;;;;;12.40;2.75;;;32.90;42.00;;;;;;5015305;28;20037;-58
2022/07/02 11:13:50;;;;;;;3.33;2.08;;;33.00;42.30;;;;;;5013045;28;20119;-58
2022/07/02 11:16:18;;;;;;;6.30;2.33;;;33.10;42.20;;;;;;5014918;28;20033;-58
2022/07/02 11:18:46;;;;;;;7.60;2.45;;;33.30;41.70;;;;;;5014607;28;20022;-56
2022/07/02 11:21:15;;;;;;;9.02;2.97;;;33.40;41.90;;;;;;5015865;28;20371;-56
2022/07/02 11:23:41;;;;;;;4.20;1.98;;;33.50;41.20;;;;;;5013973;28;20078;-57
2022/07/02 11:26:07;;;;;;;17.40;4.18;;;33.40;41.80;;;;;;5013891;28;20458;-58
2022/07/02 11:28:36;;;;;;;7.90;2.53;;;33.50;41.00;;;;;;5015203;28;20032;-56
2022/07/02 11:31:04;;;;;;;9.48;2.50;;;33.40;41.80;;;;;;5014704;28;20033;-57
2022/07/02 11:33:31;;;;;;;4.95;2.22;;;33.40;42.00;;;;;;5014792;28;20029;-57
2022/07/02 11:35:57;;;;;;;6.70;2.03;;;33.60;42.60;;;;;;5014843;28;20034;-58
2022/07/02 11:38:23;;;;;;;2.80;1.77;;;33.70;41.60;;;;;;5014714;28;20120;-58
2022/07/02 11:40:49;;;;;;;8.57;2.47;;;33.80;41.90;;;;;;5014648;28;20276;-57
2022/07/02 11:43:19;;;;;;;6.20;2.83;;;33.90;41.90;;;;;;5014544;28;20034;-57
2022/07/02 11:45:46;;;;;;;6.38;2.00;;;34.00;41.50;;;;;;5014692;28;20076;-58
2022/07/02 11:48:20;;;;;;;9.77;2.15;;;34.10;41.30;;;;;;5013573;28;20034;-59
2022/07/02 11:50:55;;;;;;;6.70;2.90;;;34.20;39.70;;;;;;5014001;28;20026;-58
2022/07/02 11:53:20;;;;;;;3.40;1.70;;;34.30;39.70;;;;;;5014478;28;20038;-57
2022/07/02 11:55:46;;;;;;;12.63;3.08;;;34.30;38.60;;;;;;5014519;28;20018;-58
2022/07/02 11:58:12;;;;;;;5.47;2.13;;;34.30;40.80;;;;;;5013654;28;20414;-57
2022/07/02 12:00:37;;;;;;;8.68;2.42;;;34.40;41.90;;;;;;5014028;28;20442;-56
2022/07/02 12:03:13;;;;;;;8.07;3.10;;;34.40;41.90;;;;;;5014964;28;20029;-58
2022/07/02 12:05:52;;;;;;;9.20;2.33;;;34.70;41.60;;;;;;5014409;28;20033;-58
2022/07/02 12:08:18;;;;;;;6.00;2.00;;;34.60;39.60;;;;;;5013910;28;20033;-59
2022/07/02 12:10:44;;;;;;;4.38;1.80;;;34.50;39.70;;;;;;5014011;28;20113;-56
2022/07/02 12:13:11;;;;;;;3.70;1.95;;;34.50;39.80;;;;;;5014262;28;20075;-58
2022/07/02 12:15:44;;;;;;;7.15;2.20;;;34.70;40.50;;;;;;5014239;28;20034;-57
2022/07/02 12:18:20;;;;;;;6.97;2.72;;;34.80;39.60;;;;;;5014217;28;20030;-59
2022/07/02 12:20:46;;;;;;;7.13;2.40;;;34.90;39.70;;;;;;5013843;28;20163;-57
2022/07/02 12:23:13;;;;;;;11.98;2.45;;;34.90;40.10;;;;;;5013570;28;20026;-59
2022/07/02 12:25:43;;;;;;;7.55;2.20;;;35.00;40.40;;;;;;5013738;28;20376;-59
2022/07/02 12:29:53;;;;;;;8.85;3.08;;;35.10;40.00;;;;;;5013885;28;20422;-59
2022/07/02 12:30:54;;;;;;;8.77;2.53;;;35.20;38.80;;;;;;5013424;28;20129;-59
2022/07/02 12:33:58;;;;;;;2.80;1.90;;;35.20;37.80;;;;;;5013943;28;20108;-59
2022/07/02 12:36:24;;;;;;;5.07;2.05;;;35.30;39.20;;;;;;5004995;28;20048;-58
2022/07/02 12:38:50;;;;;;;5.22;2.10;;;35.30;39.20;;;;;;5013578;28;20477;-59
2022/07/02 12:41:15;;;;;;;4.30;2.25;;;35.30;39.00;;;;;;5013438;28;20032;-59
2022/07/02 12:43:52;;;;;;;7.18;2.85;;;35.40;38.70;;;;;;5013441;28;20034;-58
2022/07/02 12:46:18;;;;;;;;;;;35.50;39.00;;;;;;4994462;28;20526;-57
2022/07/02 12:48:44;;;;;;;8.02;2.60;;;35.50;39.00;;;;;;4994043;28;19996;-58
2022/07/02 12:51:12;;;;;;;6.72;3.13;;;35.50;39.40;;;;;;4997340;28;20093;-59